Michael S — WDE9794 — position and weather

sailwx.info

Track history (hours):
 
Tides and Currents Weather Stations Pressure Air Temp Water Temp Dewpoint Dewpoint Depression Visibility Wind Speed Wind Dir Waves Ship Positions

Michael S

Owner: Bisso Tow Boats Inc., New Orleans, LA. More information available from US FCC via Universal Licensing System and Coast Guard Vessel Documentation Center.

Last reported at 2015-Mar-06 10:19 UTC. Time now 2015-Mar-06 20:10 UTC.
Position N 29°56' W 089°59'.

Length 33 m; draft 3 m.

Type: Towing. MMSI: 367413700.

Date/timePositionNaut miles runAvg speedWind from/ knotsBaromVisibWave heightAir tempDewpointWater temp
2015-Mar-06 10:19N 29°56' W 089°59'3 0.8
2015-Mar-06 06:32N 29°55' W 089°56'0 0.2
2015-Mar-06 05:32N 29°55' W 089°56'0 0.2
2015-Mar-06 04:33N 29°55' W 089°56'5 4.3
2015-Mar-06 03:27N 29°57' W 090°01'0 0.0
2015-Mar-06 02:30N 29°57' W 090°01'0 0.0
2015-Mar-06 00:03N 29°57' W 090°01'0 0.0
2015-Mar-05 23:24N 29°57' W 090°01'0 0.0
2015-Mar-05 21:27N 29°57' W 090°01'0 0.0
2015-Mar-05 19:18N 29°57' W 090°01'0 0.0
2015-Mar-05 17:18N 29°57' W 090°01'0 0.0
2015-Mar-05 16:09N 29°57' W 090°01'0 0.0
2015-Mar-05 14:21N 29°57' W 090°01'1 0.1
2015-Mar-05 00:10N 29°56' W 089°60'3 0.5
2015-Mar-04 18:29N 29°56' W 090°03'2 1.8
2015-Mar-04 17:06N 29°57' W 090°01'3 1.5
2015-Mar-04 15:21N 29°60' W 090°01'0 0.0
2015-Mar-04 13:18N 29°60' W 090°01'0 0.0
2015-Mar-04 12:24N 29°60' W 090°01'0 0.0
2015-Mar-04 11:30N 29°60' W 090°01'0 0.0
2015-Mar-04 09:27N 29°60' W 090°01'0 0.0
2015-Mar-04 08:21N 29°60' W 090°01'1 0.2
2015-Mar-04 04:06N 29°59' W 090°01'1 1.2
2015-Mar-04 03:10N 29°58' W 090°02'1 0.6
2015-Mar-04 02:14N 29°57' W 090°02'1 0.1
2015-Mar-03 18:29N 29°57' W 090°01'1 0.3
2015-Mar-03 15:14N 29°58' W 090°02'0 0.0
2015-Mar-03 14:23N 29°58' W 090°02'0 0.0
2015-Mar-03 13:32N 29°58' W 090°02'0 0.0
2015-Mar-03 12:20N 29°58' W 090°02'0 0.0
2015-Mar-03 11:26N 29°58' W 090°02'0 0.0
2015-Mar-03 08:20N 29°58' W 090°02'0 0.0
2015-Mar-03 07:32N 29°58' W 090°02'0 0.0
2015-Mar-03 05:32N 29°58' W 090°02'0 0.0
2015-Mar-03 04:08N 29°58' W 090°02'1 0.2
2015-Mar-02 23:03N 29°57' W 090°01'2 0.3
2015-Mar-02 18:08N 29°56' W 089°60'0 0.0
2015-Mar-02 08:16N 29°56' W 089°60'0 0.0
2015-Mar-02 05:22N 29°56' W 089°60'0 0.0
2015-Mar-02 03:31N 29°56' W 089°60'0 0.0
2015-Mar-02 02:25N 29°56' W 089°60'0 0.0
2015-Mar-02 01:19N 29°56' W 089°60'0 0.0
2015-Mar-02 00:13N 29°56' W 089°60'0 0.0
2015-Mar-01 19:10N 29°56' W 089°60'0 0.1
2015-Mar-01 16:27N 29°56' W 089°60'0 0.2
2015-Mar-01 14:29N 29°56' W 089°60'0 0.0
2015-Mar-01 04:21N 29°56' W 089°60'3 1.1
2015-Mar-01 01:12N 29°55' W 089°56'710.6
2015-Mar-01 00:33N 29°57' W 090°04'2 0.4
2015-Feb-28 19:32N 29°55' W 090°04'4 0.7
2015-Feb-28 13:11N 29°56' W 089°60'0 0.2
2015-Feb-28 12:27N 29°56' W 089°60'2 0.7
2015-Feb-28 09:15N 29°58' W 090°02'0 0.0
2015-Feb-28 03:24N 29°58' W 090°02'1 0.2
2015-Feb-28 00:31N 29°58' W 090°02'2 0.8
2015-Feb-27 22:06N 29°60' W 090°01'0 0.1
2015-Feb-27 21:33N 29°60' W 090°01'2 2.1
2015-Feb-27 20:33N 29°58' W 090°02'6 0.4
2015-Feb-27 03:25N 29°55' W 089°55'6 0.4
2015-Feb-26 14:25N 29°57' W 090°01'0 0.0
2015-Feb-26 09:13N 29°57' W 090°01'0 0.0
2015-Feb-26 08:19N 29°57' W 090°01'4 0.4
2015-Feb-25 21:28N 29°55' W 089°57'4 2.1
2015-Feb-25 19:29N 29°57' W 090°01'0 0.0
2015-Feb-25 17:29N 29°57' W 090°01'0 0.0
2015-Feb-25 16:29N 29°57' W 090°01'0 0.0
2015-Feb-25 15:26N 29°57' W 090°01'0 0.1
2015-Feb-25 13:19N 29°57' W 090°01'0 0.2
2015-Feb-25 12:03N 29°57' W 090°01'0 0.2
2015-Feb-25 11:23N 29°57' W 090°01'3 1.5
2015-Feb-25 09:15N 29°55' W 090°04'3 1.1
2015-Feb-25 06:10N 29°58' W 090°02'6 0.4
2015-Feb-24 16:04N 29°55' W 090°08'0 0.0
2015-Feb-24 13:04N 29°55' W 090°08'0 0.0
2015-Feb-24 12:19N 29°55' W 090°08'0 0.0
2015-Feb-24 10:28N 29°55' W 090°08'  
Track history (hours):
 
Tides and Currents Weather Stations Pressure Air Temp Water Temp Dewpoint Dewpoint Depression Visibility Wind Speed Wind Dir Waves Ship Positions

Michael S

Owner: Bisso Tow Boats Inc., New Orleans, LA. More information available from US FCC via Universal Licensing System and Coast Guard Vessel Documentation Center.

Last reported at 2015-Mar-06 10:19 UTC. Time now 2015-Mar-06 20:10 UTC.
Position N 29°56' W 089°59'.

Length 33 m; draft 3 m.

Type: Towing. MMSI: 367413700.

Date/timePositionNaut miles runAvg speedWind from/ knotsBaromVisibWave heightAir tempDewpointWater temp
2015-Mar-06 10:19N 29°56' W 089°59'3 0.8
2015-Mar-06 06:32N 29°55' W 089°56'0 0.2
2015-Mar-06 05:32N 29°55' W 089°56'0 0.2
2015-Mar-06 04:33N 29°55' W 089°56'5 4.3
2015-Mar-06 03:27N 29°57' W 090°01'0 0.0
2015-Mar-06 02:30N 29°57' W 090°01'0 0.0
2015-Mar-06 00:03N 29°57' W 090°01'0 0.0
2015-Mar-05 23:24N 29°57' W 090°01'0 0.0
2015-Mar-05 21:27N 29°57' W 090°01'0 0.0
2015-Mar-05 19:18N 29°57' W 090°01'0 0.0
2015-Mar-05 17:18N 29°57' W 090°01'0 0.0
2015-Mar-05 16:09N 29°57' W 090°01'0 0.0
2015-Mar-05 14:21N 29°57' W 090°01'1 0.1
2015-Mar-05 00:10N 29°56' W 089°60'3 0.5
2015-Mar-04 18:29N 29°56' W 090°03'2 1.8
2015-Mar-04 17:06N 29°57' W 090°01'3 1.5
2015-Mar-04 15:21N 29°60' W 090°01'0 0.0
2015-Mar-04 13:18N 29°60' W 090°01'0 0.0
2015-Mar-04 12:24N 29°60' W 090°01'0 0.0
2015-Mar-04 11:30N 29°60' W 090°01'0 0.0
2015-Mar-04 09:27N 29°60' W 090°01'0 0.0
2015-Mar-04 08:21N 29°60' W 090°01'1 0.2
2015-Mar-04 04:06N 29°59' W 090°01'1 1.2
2015-Mar-04 03:10N 29°58' W 090°02'1 0.6
2015-Mar-04 02:14N 29°57' W 090°02'1 0.1
2015-Mar-03 18:29N 29°57' W 090°01'1 0.3
2015-Mar-03 15:14N 29°58' W 090°02'0 0.0
2015-Mar-03 14:23N 29°58' W 090°02'0 0.0
2015-Mar-03 13:32N 29°58' W 090°02'0 0.0
2015-Mar-03 12:20N 29°58' W 090°02'0 0.0
2015-Mar-03 11:26N 29°58' W 090°02'0 0.0
2015-Mar-03 08:20N 29°58' W 090°02'0 0.0
2015-Mar-03 07:32N 29°58' W 090°02'0 0.0
2015-Mar-03 05:32N 29°58' W 090°02'0 0.0
2015-Mar-03 04:08N 29°58' W 090°02'1 0.2
2015-Mar-02 23:03N 29°57' W 090°01'2 0.3
2015-Mar-02 18:08N 29°56' W 089°60'0 0.0
2015-Mar-02 08:16N 29°56' W 089°60'0 0.0
2015-Mar-02 05:22N 29°56' W 089°60'0 0.0
2015-Mar-02 03:31N 29°56' W 089°60'0 0.0
2015-Mar-02 02:25N 29°56' W 089°60'0 0.0
2015-Mar-02 01:19N 29°56' W 089°60'0 0.0
2015-Mar-02 00:13N 29°56' W 089°60'0 0.0
2015-Mar-01 19:10N 29°56' W 089°60'0 0.1
2015-Mar-01 16:27N 29°56' W 089°60'0 0.2
2015-Mar-01 14:29N 29°56' W 089°60'0 0.0
2015-Mar-01 04:21N 29°56' W 089°60'3 1.1
2015-Mar-01 01:12N 29°55' W 089°56'710.6
2015-Mar-01 00:33N 29°57' W 090°04'2 0.4
2015-Feb-28 19:32N 29°55' W 090°04'4 0.7
2015-Feb-28 13:11N 29°56' W 089°60'0 0.2
2015-Feb-28 12:27N 29°56' W 089°60'2 0.7
2015-Feb-28 09:15N 29°58' W 090°02'0 0.0
2015-Feb-28 03:24N 29°58' W 090°02'1 0.2
2015-Feb-28 00:31N 29°58' W 090°02'2 0.8
2015-Feb-27 22:06N 29°60' W 090°01'0 0.1
2015-Feb-27 21:33N 29°60' W 090°01'2 2.1
2015-Feb-27 20:33N 29°58' W 090°02'6 0.4
2015-Feb-27 03:25N 29°55' W 089°55'6 0.4
2015-Feb-26 14:25N 29°57' W 090°01'0 0.0
2015-Feb-26 09:13N 29°57' W 090°01'0 0.0
2015-Feb-26 08:19N 29°57' W 090°01'4 0.4
2015-Feb-25 21:28N 29°55' W 089°57'4 2.1
2015-Feb-25 19:29N 29°57' W 090°01'0 0.0
2015-Feb-25 17:29N 29°57' W 090°01'0 0.0
2015-Feb-25 16:29N 29°57' W 090°01'0 0.0
2015-Feb-25 15:26N 29°57' W 090°01'0 0.1
2015-Feb-25 13:19N 29°57' W 090°01'0 0.2
2015-Feb-25 12:03N 29°57' W 090°01'0 0.2
2015-Feb-25 11:23N 29°57' W 090°01'3 1.5
2015-Feb-25 09:15N 29°55' W 090°04'3 1.1
2015-Feb-25 06:10N 29°58' W 090°02'6 0.4
2015-Feb-24 16:04N 29°55' W 090°08'0 0.0
2015-Feb-24 13:04N 29°55' W 090°08'0 0.0
2015-Feb-24 12:19N 29°55' W 090°08'0 0.0
2015-Feb-24 10:28N 29°55' W 090°08'  

Dump ship's entire track history